Pagina principale
METAR-TAF:

METAR-TAF

Aeroporti :

Emmen, Svizzera

latitudine: 47-05-32N, longitudine: 8-18-16E, altezza: 426 m

Osservazione

Il bollettino è stato emesso 24 minuti fa, alle 00:50 UTC
Vento 3 kt da ovest/nord-ovest, variando fra sud/sud-ovest e nord/nord-ovest
Temperature 6°C
Umidità 81%
Pressione 1014 hPa
Visibilità 10 km o più
Nubi sparse ad un'altezza di 2700 ft
Nuvoloso ad un'altezza di 4700 ft
Nuvoloso ad un'altezza di 6900 ft

METAR: LSME 200050Z AUTO 29003KT 210V330 9999NDV SCT027 BKN047 BKN069 06/03 Q1014 RMK

Ora: 03:14 (01:14 UTC)


TAF: mancante

Osservazioni e previsioni meteorologiche di più di 4000 aeroporti (messaggi METAR e TAF).

Le stazioni disponibili sono rappresentate dai dischi gialli e rossi sulla carta.

Puntare il mouse per vedere il nome della stazione.

Clicca sopra per visualizzare le osservazioni e previsioni meteorologiche.

Per cambiare la mappa : fare clic sui pulsanti verdi con una croce nera per ingrandire, il pulsante verde con un trattino per diminuire, o sulla freccia verde per le mappe adiacenti.


METAR-TAF: